Time;durP1;ratioP1;P1;durP2;ratioP2;P2;SDS_P1;SDS_P2;PMS_P1;PMS_P2;Temp;Humidity;BMP_temperature;BMP_pressure;BME280_temperature;BME280_humidity;BME280_pressure;Samples;Min_cycle;Max_cycle;Signal;HPM_P1;HPM_P2
2024/01/10 00:01:20;;;;;;;6.50;1.43;;;-6.20;99.90;;;;;;5010605;28;20194;-84
2024/01/10 00:03:46;;;;;;;0.80;0.80;;;-6.20;99.90;;;;;;5011347;28;20316;-84
2024/01/10 00:06:11;;;;;;;1.63;1.53;;;-6.10;99.90;;;;;;5010669;28;20316;-80
2024/01/10 00:08:37;;;;;;;1.03;1.03;;;-6.00;99.90;;;;;;5014772;28;20312;-81
2024/01/10 00:11:03;;;;;;;2.03;1.80;;;-5.90;99.90;;;;;;5011670;28;20197;-82
2024/01/10 00:13:31;;;;;;;3.28;2.97;;;-5.80;99.90;;;;;;5007332;28;20190;-82
2024/01/10 00:15:58;;;;;;;3.88;3.55;;;-5.70;99.90;;;;;;5012464;28;20313;-81
2024/01/10 00:18:24;;;;;;;4.32;2.40;;;-5.60;99.90;;;;;;5012277;28;20206;-83
2024/01/10 00:20:53;;;;;;;1.00;0.95;;;-5.60;99.90;;;;;;5005351;28;20706;-81
2024/01/10 00:23:21;;;;;;;3.22;2.97;;;-5.50;99.90;;;;;;5033662;28;20218;-79
2024/01/10 00:25:47;;;;;;;3.03;2.50;;;-5.50;99.90;;;;;;5024745;28;20183;-84
2024/01/10 00:28:12;;;;;;;6.93;1.67;;;-5.40;99.90;;;;;;5019147;28;20209;-80
2024/01/10 00:30:38;;;;;;;4.90;2.33;;;-5.30;99.90;;;;;;5011761;28;20182;-80
2024/01/10 00:33:04;;;;;;;23.10;2.33;;;-5.20;99.90;;;;;;5011206;28;20212;-83
2024/01/10 00:35:30;;;;;;;6.10;2.70;;;-5.20;99.90;;;;;;5012528;28;20185;-85
2024/01/10 00:37:56;;;;;;;2.05;1.85;;;-5.20;99.90;;;;;;5012530;28;20499;-78
2024/01/10 00:40:23;;;;;;;8.20;4.97;;;-5.20;99.90;;;;;;5007545;28;21054;-80
2024/01/10 00:42:49;;;;;;;6.22;1.67;;;-5.10;99.90;;;;;;5013632;28;20460;-84
2024/01/10 00:45:15;;;;;;;1.73;1.00;;;-5.10;99.90;;;;;;5014002;28;20193;-83
2024/01/10 00:47:41;;;;;;;5.43;2.92;;;-5.00;99.90;;;;;;5014285;28;20467;-81
2024/01/10 00:50:07;;;;;;;3.87;3.50;;;-5.00;99.90;;;;;;5007238;28;20181;-81
2024/01/10 00:52:33;;;;;;;23.50;2.45;;;-5.00;99.90;;;;;;5012123;28;20281;-82
2024/01/10 00:54:58;;;;;;;6.07;2.70;;;-4.90;99.90;;;;;;5025220;28;20288;-79
2024/01/10 00:57:24;;;;;;;8.53;3.40;;;-4.90;99.90;;;;;;5015444;28;20216;-84
2024/01/10 00:59:49;;;;;;;3.20;2.40;;;-4.80;99.90;;;;;;5016539;28;20205;-78
2024/01/10 01:02:15;;;;;;;6.07;3.27;;;-4.80;99.90;;;;;;5022392;28;20197;-86
2024/01/10 01:04:40;;;;;;;4.30;1.53;;;-4.80;99.90;;;;;;5018992;28;20266;-82
2024/01/10 01:07:06;;;;;;;2.27;2.17;;;-4.80;99.90;;;;;;5016956;28;20262;-86
2024/01/10 01:09:31;;;;;;;6.03;3.23;;;-4.70;99.90;;;;;;5013412;28;22018;-79
2024/01/10 01:11:57;;;;;;;5.60;2.57;;;-4.70;99.90;;;;;;5019158;28;20902;-82
2024/01/10 01:14:22;;;;;;;7.53;2.27;;;-4.70;99.90;;;;;;5015516;28;20877;-82
2024/01/10 01:16:48;;;;;;;1.07;1.07;;;-4.70;99.90;;;;;;5014155;28;21149;-82
2024/01/10 01:19:13;;;;;;;23.93;3.00;;;-4.60;99.90;;;;;;5007779;28;20915;-86
2024/01/10 01:21:39;;;;;;;4.57;4.17;;;-4.50;99.90;;;;;;5009135;28;20771;-84
2024/01/10 01:24:04;;;;;;;15.97;3.00;;;-4.50;99.90;;;;;;5013554;28;20251;-81
2024/01/10 01:26:30;;;;;;;7.70;3.83;;;-4.50;99.90;;;;;;5017301;28;20623;-81
2024/01/10 01:28:55;;;;;;;2.47;2.23;;;-4.50;99.90;;;;;;5012242;28;20317;-80
2024/01/10 01:31:21;;;;;;;4.57;4.17;;;-4.40;99.90;;;;;;5019070;28;20261;-79
2024/01/10 01:33:47;;;;;;;3.93;3.40;;;-4.40;99.90;;;;;;5024416;28;20782;-80
2024/01/10 01:36:12;;;;;;;12.13;2.23;;;-4.50;99.90;;;;;;5032631;28;20198;-83
2024/01/10 01:38:38;;;;;;;8.23;3.90;;;-4.40;99.90;;;;;;5012762;28;20213;-85
2024/01/10 01:41:05;;;;;;;7.80;1.60;;;-4.30;99.90;;;;;;5011013;28;20340;-79
2024/01/10 01:43:31;;;;;;;3.97;1.95;;;-4.30;99.90;;;;;;5009912;28;21116;-84
2024/01/10 01:45:57;;;;;;;3.95;2.42;;;-4.40;99.90;;;;;;5011400;28;20196;-87
2024/01/10 01:48:25;;;;;;;2.13;1.27;;;-4.40;99.90;;;;;;5012452;28;20205;-80
2024/01/10 01:50:54;;;;;;;7.80;3.00;;;-4.40;99.90;;;;;;5005093;28;20647;-83
2024/01/10 01:53:20;;;;;;;6.25;3.60;;;-4.50;99.90;;;;;;5004631;28;20244;-85
2024/01/10 01:55:46;;;;;;;3.17;1.70;;;-4.50;99.90;;;;;;5008175;28;20201;-83
2024/01/10 01:58:12;;;;;;;2.63;2.17;;;-4.40;99.90;;;;;;5008669;28;20594;-79
2024/01/10 02:00:38;;;;;;;3.63;2.67;;;-4.30;99.90;;;;;;5007462;28;20181;-85
2024/01/10 02:03:06;;;;;;;9.75;3.53;;;-4.20;99.90;;;;;;5006427;28;20190;-83
2024/01/10 02:05:32;;;;;;;3.60;1.95;;;-4.30;99.90;;;;;;5007684;28;20194;-82
2024/01/10 02:07:58;;;;;;;12.07;3.63;;;-4.30;99.90;;;;;;5027688;28;20214;-82
2024/01/10 02:10:23;;;;;;;3.80;2.87;;;-4.20;99.90;;;;;;5011177;28;20435;-83
2024/01/10 02:12:49;;;;;;;4.87;2.17;;;-4.20;99.90;;;;;;5013324;28;20432;-85
2024/01/10 02:15:15;;;;;;;2.60;2.40;;;-4.20;99.90;;;;;;5023473;28;20190;-83
2024/01/10 02:17:41;;;;;;;2.23;2.00;;;-4.20;99.90;;;;;;5011624;28;20206;-80
2024/01/10 02:20:14;;;;;;;12.83;2.87;;;-4.20;99.90;;;;;;5010929;28;21268;-79
2024/01/10 02:22:39;;;;;;;6.50;4.57;;;-4.30;99.90;;;;;;5018622;28;20186;-77
2024/01/10 02:25:10;;;;;;;6.23;2.77;;;-4.30;99.90;;;;;;5023669;28;20204;-83
2024/01/10 02:27:39;;;;;;;10.30;2.30;;;-4.30;99.90;;;;;;5016150;28;20193;-81
2024/01/10 02:30:06;;;;;;;5.90;3.50;;;-4.40;99.90;;;;;;5008062;28;20194;-79
2024/01/10 02:32:32;;;;;;;10.63;3.10;;;-4.40;99.90;;;;;;5008314;28;20187;-84
2024/01/10 02:34:58;;;;;;;6.95;2.47;;;-4.30;99.90;;;;;;5007374;28;20185;-82
2024/01/10 02:37:24;;;;;;;7.78;5.07;;;-4.20;99.90;;;;;;5012109;28;21577;-80
2024/01/10 02:39:50;;;;;;;4.77;3.00;;;-4.10;99.90;;;;;;5011247;28;20189;-86
2024/01/10 02:42:16;;;;;;;4.07;2.40;;;-4.10;99.90;;;;;;5009806;28;20221;-81
2024/01/10 02:44:42;;;;;;;5.47;3.50;;;-4.10;99.90;;;;;;5016930;28;20516;-84
2024/01/10 02:47:08;;;;;;;5.10;3.10;;;-4.20;99.90;;;;;;5017060;28;20278;-80
2024/01/10 02:49:33;;;;;;;7.07;2.93;;;-4.30;99.90;;;;;;5022867;28;20228;-85
2024/01/10 02:51:59;;;;;;;10.13;3.07;;;-4.20;99.90;;;;;;5014357;28;20181;-86
2024/01/10 02:54:25;;;;;;;5.35;2.58;;;-4.10;99.90;;;;;;5012967;28;20544;-81
2024/01/10 02:56:51;;;;;;;4.53;1.70;;;-4.00;99.90;;;;;;5011982;28;20300;-84
2024/01/10 02:59:16;;;;;;;13.97;4.00;;;-4.00;99.90;;;;;;5017513;28;20239;-85
2024/01/10 03:01:42;;;;;;;10.47;3.27;;;-3.80;99.90;;;;;;5010578;28;20281;-82
2024/01/10 03:04:07;;;;;;;4.43;2.47;;;-3.90;99.90;;;;;;5017325;28;20232;-85
2024/01/10 03:06:33;;;;;;;12.30;2.40;;;-3.90;99.90;;;;;;5010577;28;20182;-83
2024/01/10 03:08:58;;;;;;;3.63;2.17;;;-4.00;99.90;;;;;;5018375;28;20221;-82
2024/01/10 03:11:24;;;;;;;4.20;2.87;;;-4.10;99.90;;;;;;5023917;28;20178;-79
2024/01/10 03:14:03;;;;;;;12.43;3.80;;;-4.00;99.90;;;;;;5044410;28;20195;-78
2024/01/10 03:16:29;;;;;;;7.53;1.50;;;-4.10;99.90;;;;;;5027391;28;20190;-87
2024/01/10 03:18:55;;;;;;;12.30;3.55;;;-4.00;99.90;;;;;;5014461;28;20217;-84
2024/01/10 03:21:24;;;;;;;9.07;3.93;;;-4.00;99.90;;;;;;5018328;28;20281;-85
2024/01/10 03:23:50;;;;;;;6.75;2.10;;;-4.10;99.90;;;;;;5010846;28;20787;-88
2024/01/10 03:26:16;;;;;;;5.70;3.08;;;-4.10;99.90;;;;;;5018154;28;21064;-82
2024/01/10 03:28:41;;;;;;;2.83;2.03;;;-4.30;99.90;;;;;;5013411;28;20214;-82
2024/01/10 03:31:07;;;;;;;6.13;3.20;;;-4.40;99.90;;;;;;5011858;28;20699;-80
2024/01/10 03:33:32;;;;;;;1.40;1.20;;;-4.40;99.90;;;;;;5016645;28;20217;-84
2024/01/10 03:35:58;;;;;;;1.60;1.50;;;-4.50;99.90;;;;;;5011454;28;20209;-84
2024/01/10 03:38:24;;;;;;;8.50;5.30;;;-4.50;99.90;;;;;;5011041;28;21229;-84
2024/01/10 03:40:49;;;;;;;12.13;2.77;;;-4.60;99.90;;;;;;5014325;28;20189;-82
2024/01/10 03:43:16;;;;;;;4.13;3.03;;;-4.70;99.90;;;;;;5013364;28;20233;-84
2024/01/10 03:45:42;;;;;;;5.63;3.10;;;-4.80;99.90;;;;;;5011455;28;20255;-84
2024/01/10 03:48:07;;;;;;;3.83;3.50;;;-4.80;99.90;;;;;;5014389;28;20206;-81
2024/01/10 03:50:33;;;;;;;7.93;2.13;;;-4.80;99.90;;;;;;5017124;28;20193;-84
2024/01/10 03:52:58;;;;;;;7.90;3.30;;;-4.90;99.90;;;;;;5012243;28;20186;-82
2024/01/10 03:55:24;;;;;;;2.93;2.40;;;-5.20;99.90;;;;;;5008567;28;20304;-85
2024/01/10 03:57:49;;;;;;;4.13;1.57;;;-5.10;99.90;;;;;;4983469;28;1033125;-86
2024/01/10 04:00:15;;;;;;;1.83;1.73;;;-5.10;99.90;;;;;;5013368;28;20567;-82
2024/01/10 04:02:40;;;;;;;3.13;1.73;;;-5.20;99.90;;;;;;5007561;28;20233;-84
2024/01/10 04:05:09;;;;;;;7.43;3.97;;;-5.20;99.90;;;;;;5010907;28;20288;-80
2024/01/10 04:07:34;;;;;;;3.03;1.48;;;-5.20;99.90;;;;;;5007293;28;20224;-82
2024/01/10 04:10:00;;;;;;;1.80;1.70;;;-5.20;99.90;;;;;;5012769;28;20216;-83
2024/01/10 04:12:25;;;;;;;2.97;1.60;;;-5.20;99.90;;;;;;5010595;28;20194;-83
2024/01/10 04:14:51;;;;;;;2.30;2.20;;;-5.10;99.90;;;;;;5013493;28;20209;-86
2024/01/10 04:17:17;;;;;;;4.00;2.93;;;-5.10;99.90;;;;;;5013893;28;20190;-85
2024/01/10 04:19:42;;;;;;;4.67;2.20;;;-5.00;99.90;;;;;;5013770;28;20283;-82
2024/01/10 04:22:07;;;;;;;3.10;2.33;;;-5.00;99.90;;;;;;5026247;28;20202;-81
2024/01/10 04:24:33;;;;;;;6.00;2.90;;;-4.90;99.90;;;;;;5020872;28;20276;-81
2024/01/10 04:26:58;;;;;;;3.20;2.93;;;-4.90;99.90;;;;;;5024270;28;20190;-84
2024/01/10 04:29:24;;;;;;;8.67;3.70;;;-4.90;99.90;;;;;;5011703;28;20604;-84
2024/01/10 04:31:49;;;;;;;6.20;3.10;;;-4.90;99.90;;;;;;5011702;28;20205;-83
2024/01/10 04:34:15;;;;;;;3.87;2.90;;;-4.80;99.90;;;;;;5010135;28;20862;-85
2024/01/10 04:36:41;;;;;;;6.17;1.93;;;-4.60;99.90;;;;;;5008303;28;20174;-81
2024/01/10 04:39:06;;;;;;;4.97;3.97;;;-4.60;99.90;;;;;;5006350;28;21080;-85
2024/01/10 04:41:32;;;;;;;15.20;2.83;;;-4.50;99.90;;;;;;5008006;28;20282;-82
2024/01/10 04:43:57;;;;;;;4.57;3.07;;;-4.50;99.90;;;;;;5007719;28;20291;-80
2024/01/10 04:46:22;;;;;;;4.70;2.37;;;-4.50;99.90;;;;;;5003874;28;21106;-84
2024/01/10 04:48:48;;;;;;;2.40;2.07;;;-4.50;99.90;;;;;;5008157;28;20213;-82
2024/01/10 04:51:14;;;;;;;8.57;2.10;;;-4.30;99.90;;;;;;5010681;28;20175;-83
2024/01/10 04:53:40;;;;;;;15.52;2.75;;;-4.30;99.90;;;;;;5033046;28;20166;-80
2024/01/10 04:56:06;;;;;;;15.43;4.60;;;-4.20;99.90;;;;;;5017462;28;20248;-80
2024/01/10 04:58:32;;;;;;;3.60;2.97;;;-4.10;99.90;;;;;;5010653;28;20485;-80
2024/01/10 05:00:58;;;;;;;6.03;2.72;;;-4.00;99.90;;;;;;5010578;28;20228;-85
2024/01/10 05:03:23;;;;;;;7.53;3.00;;;-3.80;99.90;;;;;;5011144;28;20253;-82
2024/01/10 05:05:49;;;;;;;9.33;3.03;;;-3.80;99.90;;;;;;5012167;28;20198;-85
2024/01/10 05:08:15;;;;;;;5.33;2.50;;;-3.90;99.90;;;;;;5008916;28;20228;-82
2024/01/10 05:10:40;;;;;;;3.50;3.13;;;-3.90;99.90;;;;;;5012296;28;20208;-84
2024/01/10 05:13:06;;;;;;;6.60;3.70;;;-3.80;99.90;;;;;;5004244;28;20190;-80
2024/01/10 05:15:31;;;;;;;4.70;4.10;;;-3.70;99.90;;;;;;5011537;28;20200;-81
2024/01/10 05:17:57;;;;;;;5.47;3.33;;;-3.60;99.90;;;;;;5009949;28;20293;-83
2024/01/10 05:20:22;;;;;;;5.10;2.80;;;-3.60;99.90;;;;;;5007386;28;20191;-83
2024/01/10 05:22:48;;;;;;;6.97;4.10;;;-3.50;99.90;;;;;;5009257;28;20186;-82
2024/01/10 05:25:13;;;;;;;8.33;5.10;;;-3.40;99.90;;;;;;5006714;28;20286;-81
2024/01/10 05:27:39;;;;;;;7.43;3.40;;;-3.40;99.90;;;;;;5015913;28;20537;-77
2024/01/10 05:30:05;;;;;;;3.83;1.90;;;-3.60;99.90;;;;;;5016887;28;20420;-78
2024/01/10 05:32:31;;;;;;;4.88;2.58;;;-3.70;99.90;;;;;;5014603;28;20200;-79
2024/01/10 05:34:56;;;;;;;8.90;2.23;;;-3.60;99.90;;;;;;5015573;28;20189;-80
2024/01/10 05:37:22;;;;;;;4.10;1.60;;;-3.60;99.90;;;;;;5012789;28;20185;-82
2024/01/10 05:39:47;;;;;;;2.83;2.47;;;-3.60;99.90;;;;;;5006193;28;20810;-81
2024/01/10 05:42:14;;;;;;;10.40;4.80;;;-3.40;99.90;;;;;;5002816;28;20186;-78
2024/01/10 05:44:40;;;;;;;10.52;4.25;;;-3.30;99.90;;;;;;5022027;28;20273;-82
2024/01/10 05:47:05;;;;;;;8.20;3.97;;;-3.30;99.90;;;;;;5010461;28;20213;-80
2024/01/10 05:49:32;;;;;;;9.80;3.93;;;-3.20;99.90;;;;;;5004991;28;21164;-83
2024/01/10 05:51:58;;;;;;;15.00;6.70;;;-3.20;99.90;;;;;;5010079;28;20366;-81
2024/01/10 05:54:23;;;;;;;7.00;5.17;;;-2.90;99.90;;;;;;5008498;28;20186;-80
2024/01/10 05:56:49;;;;;;;4.13;3.43;;;-3.30;99.90;;;;;;5012666;28;20212;-83
2024/01/10 05:59:16;;;;;;;7.07;3.80;;;-3.40;99.90;;;;;;5011982;28;20284;-78
2024/01/10 06:01:42;;;;;;;22.13;5.45;;;-3.30;99.90;;;;;;5008418;28;20349;-84
2024/01/10 06:04:08;;;;;;;15.80;4.13;;;-3.30;99.90;;;;;;5011810;28;20193;-84
2024/01/10 06:06:34;;;;;;;6.50;4.07;;;-3.20;99.90;;;;;;5007871;28;20255;-83
2024/01/10 06:09:00;;;;;;;15.30;5.60;;;-3.10;99.90;;;;;;5010201;28;20646;-80
2024/01/10 06:11:25;;;;;;;4.40;2.80;;;-3.00;99.90;;;;;;5010688;28;22353;-82
2024/01/10 06:13:51;;;;;;;9.83;4.77;;;-3.00;99.90;;;;;;5013958;28;20268;-84
2024/01/10 06:16:17;;;;;;;6.17;3.60;;;-3.00;99.90;;;;;;5001475;28;20763;-83
2024/01/10 06:18:42;;;;;;;5.43;2.97;;;-3.00;99.90;;;;;;5010995;28;20210;-81
2024/01/10 06:21:08;;;;;;;8.67;3.40;;;-2.90;99.90;;;;;;5013711;28;23153;-81
2024/01/10 06:23:34;;;;;;;4.63;3.13;;;-2.80;99.90;;;;;;5007591;28;20195;-83
2024/01/10 06:25:59;;;;;;;7.67;4.57;;;-2.90;99.90;;;;;;5023881;28;20205;-81
2024/01/10 06:28:25;;;;;;;22.40;5.67;;;-2.90;99.90;;;;;;5026199;28;20202;-83
2024/01/10 06:30:50;;;;;;;8.20;3.23;;;-2.90;99.90;;;;;;5017327;28;20605;-86
2024/01/10 06:33:16;;;;;;;6.60;3.57;;;-2.90;99.90;;;;;;5033951;28;20300;-80
2024/01/10 06:35:45;;;;;;;4.27;3.60;;;-3.00;99.90;;;;;;5012546;28;20194;-82
2024/01/10 06:38:11;;;;;;;15.13;5.88;;;-3.10;99.90;;;;;;5017973;28;20285;-81
2024/01/10 06:40:36;;;;;;;6.33;2.73;;;-3.10;99.90;;;;;;5016044;28;20221;-86
2024/01/10 06:43:03;;;;;;;17.37;4.53;;;-3.20;99.90;;;;;;5006062;28;20516;-83
2024/01/10 06:45:29;;;;;;;7.57;4.00;;;-3.30;99.90;;;;;;5015567;28;20471;-82
2024/01/10 06:47:55;;;;;;;13.70;5.80;;;-3.40;99.90;;;;;;5013449;28;20275;-81
2024/01/10 06:50:21;;;;;;;9.97;5.20;;;-3.40;99.90;;;;;;5001355;28;20212;-85
2024/01/10 06:52:48;;;;;;;4.95;2.72;;;-3.40;99.90;;;;;;5012464;28;20186;-80
2024/01/10 06:55:13;;;;;;;8.63;4.97;;;-3.40;99.90;;;;;;5011981;28;20178;-81
2024/01/10 06:57:39;;;;;;;5.93;4.33;;;-3.40;99.90;;;;;;5009920;28;20267;-80
2024/01/10 07:00:10;;;;;;;5.82;2.67;;;-3.40;99.90;;;;;;5012457;28;20485;-85
2024/01/10 07:02:36;;;;;;;17.98;5.88;;;;;;;;;;4999757;28;20453;-83
2024/01/10 07:05:02;;;;;;;10.70;5.27;;;-3.60;99.90;;;;;;5008786;28;20828;-83
2024/01/10 07:07:28;;;;;;;9.00;5.20;;;-3.30;99.90;;;;;;5011476;28;20457;-81
2024/01/10 07:09:53;;;;;;;11.50;4.40;;;-3.10;99.90;;;;;;5009267;28;20573;-81
2024/01/10 07:12:19;;;;;;;4.90;3.13;;;-3.10;99.90;;;;;;5007892;28;20182;-81
2024/01/10 07:14:44;;;;;;;17.47;5.27;;;-2.30;99.90;;;;;;5011395;28;20299;-82
2024/01/10 07:17:10;;;;;;;13.43;6.10;;;-3.20;99.90;;;;;;5005722;28;20738;-81
2024/01/10 07:19:35;;;;;;;9.60;3.80;;;-3.30;99.90;;;;;;4999024;28;20209;-85
2024/01/10 07:22:01;;;;;;;4.97;4.57;;;-3.20;99.90;;;;;;5001310;28;20214;-85
2024/01/10 07:24:26;;;;;;;15.43;3.47;;;-3.40;99.90;;;;;;4996943;28;20236;-83
2024/01/10 07:26:52;;;;;;;7.43;4.17;;;-3.40;99.90;;;;;;5002944;28;20191;-81
2024/01/10 07:29:17;;;;;;;4.07;3.67;;;-3.30;99.90;;;;;;5002895;28;22163;-82
2024/01/10 07:31:43;;;;;;;4.40;4.00;;;-3.50;99.90;;;;;;5011026;28;20322;-81
2024/01/10 07:34:08;;;;;;;8.10;2.47;;;-3.60;99.90;;;;;;5010485;28;20182;-83
2024/01/10 07:36:42;;;;;;;12.10;5.07;;;-3.70;99.90;;;;;;5008699;28;20185;-81
2024/01/10 07:39:07;;;;;;;9.88;4.25;;;-3.80;99.90;;;;;;5003113;28;20241;-82
2024/01/10 07:41:33;;;;;;;6.27;4.53;;;-4.00;99.90;;;;;;5006451;28;20199;-82
2024/01/10 07:43:59;;;;;;;7.07;3.93;;;-3.90;99.90;;;;;;5004555;28;20185;-82
2024/01/10 07:46:26;;;;;;;4.25;2.58;;;-3.70;99.90;;;;;;5007204;28;20217;-85
2024/01/10 07:48:52;;;;;;;5.90;2.88;;;-3.60;99.90;;;;;;5008727;28;20295;-80
2024/01/10 07:51:18;;;;;;;10.93;4.13;;;-3.40;99.90;;;;;;5005865;28;20197;-79
2024/01/10 07:53:43;;;;;;;8.43;4.93;;;-3.30;99.90;;;;;;5002693;28;20186;-83
2024/01/10 07:56:09;;;;;;;11.27;3.30;;;-3.10;99.90;;;;;;5018232;28;20201;-79
2024/01/10 07:58:34;;;;;;;12.17;3.40;;;-2.90;99.90;;;;;;5035848;28;20213;-80
2024/01/10 08:01:00;;;;;;;18.63;5.17;;;-2.70;99.90;;;;;;5009526;28;20270;-81
2024/01/10 08:03:25;;;;;;;12.77;5.27;;;-1.50;99.90;;;;;;5012973;28;20206;-84
2024/01/10 08:05:51;;;;;;;5.33;4.83;;;-2.60;99.90;;;;;;5009684;28;20193;-82
2024/01/10 08:08:16;;;;;;;6.10;5.13;;;-2.60;99.90;;;;;;5007142;28;22320;-85
2024/01/10 08:10:42;;;;;;;6.60;4.47;;;-2.50;99.90;;;;;;5010544;28;20239;-85
2024/01/10 08:13:08;;;;;;;8.97;4.30;;;-2.50;99.90;;;;;;5018605;28;20179;-80
2024/01/10 08:15:34;;;;;;;15.87;4.87;;;-2.40;99.90;;;;;;5026580;28;20222;-87
2024/01/10 08:18:02;;;;;;;11.32;3.75;;;-2.40;99.90;;;;;;5009733;28;20210;-83
2024/01/10 08:20:28;;;;;;;9.32;3.80;;;-2.40;99.90;;;;;;5021416;28;20324;-81
2024/01/10 08:22:54;;;;;;;5.27;3.30;;;-2.30;99.90;;;;;;5018320;28;20255;-82
2024/01/10 08:25:19;;;;;;;7.90;5.10;;;-2.30;99.90;;;;;;5028628;28;20213;-83
2024/01/10 08:27:45;;;;;;;20.33;4.30;;;-2.20;99.90;;;;;;5021816;28;20194;-84
2024/01/10 08:30:11;;;;;;;6.67;5.07;;;-2.00;99.90;;;;;;5013484;28;20217;-82
2024/01/10 08:32:37;;;;;;;8.05;2.90;;;-2.00;99.90;;;;;;5007546;28;20194;-86
2024/01/10 08:35:07;;;;;;;14.80;4.23;;;-2.20;99.90;;;;;;5002247;28;20473;-80
2024/01/10 08:37:33;;;;;;;8.63;4.22;;;-2.20;99.90;;;;;;5002581;28;20194;-85
2024/01/10 08:40:00;;;;;;;17.58;5.60;;;-2.30;99.90;;;;;;5003699;28;20224;-86
2024/01/10 08:42:25;;;;;;;5.85;3.80;;;-2.30;99.90;;;;;;5007898;28;20202;-80
2024/01/10 08:44:51;;;;;;;3.90;2.90;;;-2.00;99.90;;;;;;5004517;28;20185;-82
2024/01/10 08:47:16;;;;;;;14.33;5.70;;;-2.00;99.90;;;;;;5005177;28;20193;-85
2024/01/10 08:49:42;;;;;;;8.53;5.20;;;-1.70;99.90;;;;;;5020248;28;20588;-84
2024/01/10 08:52:08;;;;;;;10.77;5.13;;;-1.60;99.90;;;;;;5002556;28;20290;-83
2024/01/10 08:54:33;;;;;;;12.23;7.30;;;-1.70;99.90;;;;;;5001749;28;20228;-81
2024/01/10 08:57:00;;;;;;;14.20;6.47;;;-1.20;99.90;;;;;;5003007;28;20449;-82
2024/01/10 08:59:27;;;;;;;11.43;4.20;;;-0.70;99.90;;;;;;5003747;28;20241;-84
2024/01/10 09:01:53;;;;;;;11.32;5.93;;;0.90;99.90;;;;;;5008509;28;20233;-84
2024/01/10 09:04:19;;;;;;;9.83;5.53;;;1.50;99.90;;;;;;5020766;28;20789;-81
2024/01/10 09:06:46;;;;;;;16.70;5.07;;;2.70;99.90;;;;;;5023358;28;20182;-82
2024/01/10 09:09:12;;;;;;;14.48;5.43;;;3.90;99.90;;;;;;5009754;28;20586;-82
2024/01/10 09:11:38;;;;;;;14.65;7.07;;;4.60;98.80;;;;;;5010239;28;20209;-82
2024/01/10 09:14:04;;;;;;;8.30;4.77;;;4.90;96.20;;;;;;5002077;28;20618;-82
2024/01/10 09:16:29;;;;;;;12.73;5.80;;;4.90;94.40;;;;;;5001904;28;20255;-85
2024/01/10 09:18:57;;;;;;;8.17;3.70;;;5.60;93.90;;;;;;5003925;28;20298;-83
2024/01/10 09:21:24;;;;;;;12.32;7.22;;;5.70;90.20;;;;;;5003793;28;20662;-84
2024/01/10 09:23:51;;;;;;;14.85;5.53;;;5.30;88.70;;;;;;5003715;28;20653;-84
2024/01/10 09:26:18;;;;;;;11.85;5.53;;;5.80;88.40;;;;;;5020669;28;20186;-84
2024/01/10 09:28:43;;;;;;;14.73;5.15;;;6.30;88.00;;;;;;5001560;28;20214;-85
2024/01/10 09:31:09;;;;;;;9.07;5.10;;;6.50;84.00;;;;;;5003572;28;20622;-84
2024/01/10 09:33:35;;;;;;;12.20;4.93;;;6.70;82.50;;;;;;5003967;28;20202;-84
2024/01/10 09:36:00;;;;;;;11.83;6.10;;;6.40;80.90;;;;;;5004672;28;20791;-83
2024/01/10 09:38:26;;;;;;;12.30;6.00;;;6.30;78.90;;;;;;5006578;28;20232;-82
2024/01/10 09:41:01;;;;;;;10.67;5.30;;;6.30;79.20;;;;;;5002184;28;20194;-83
2024/01/10 09:43:27;;;;;;;11.40;5.88;;;6.40;77.60;;;;;;5003585;28;20227;-80
2024/01/10 09:45:54;;;;;;;9.90;5.25;;;6.00;77.30;;;;;;5023388;28;20199;-82
2024/01/10 09:48:20;;;;;;;23.17;5.78;;;5.00;76.20;;;;;;5009860;28;20773;-81
2024/01/10 09:50:49;;;;;;;8.50;4.77;;;3.60;77.70;;;;;;5004599;28;20720;-81
2024/01/10 09:53:23;;;;;;;11.45;6.55;;;2.20;81.20;;;;;;5005416;28;20195;-85
2024/01/10 09:55:49;;;;;;;12.57;5.80;;;1.30;85.70;;;;;;5001814;28;20253;-79
2024/01/10 09:58:14;;;;;;;15.07;8.07;;;0.80;89.50;;;;;;5002427;28;20217;-83
2024/01/10 10:00:41;;;;;;;13.70;5.90;;;0.40;90.90;;;;;;5004630;28;20210;-80
2024/01/10 10:03:12;;;;;;;28.02;5.22;;;0.10;91.50;;;;;;5007216;28;20200;-82
2024/01/10 10:05:38;;;;;;;11.55;3.58;;;-0.10;93.00;;;;;;5007028;28;20202;-82
2024/01/10 10:08:07;;;;;;;12.90;5.40;;;-0.20;93.90;;;;;;5000341;28;20205;-82
2024/01/10 10:10:32;;;;;;;15.40;3.72;;;-0.30;94.30;;;;;;5011998;28;20233;-78
2024/01/10 10:12:58;;;;;;;11.13;4.27;;;-0.40;94.80;;;;;;5021173;28;20202;-80
2024/01/10 10:15:28;;;;;;;6.77;3.00;;;-0.60;95.40;;;;;;5012230;28;20206;-82
2024/01/10 10:17:54;;;;;;;11.10;5.13;;;-0.70;96.40;;;;;;5019410;28;20461;-82
2024/01/10 10:20:32;;;;;;;11.27;7.32;;;-0.70;96.90;;;;;;5008738;28;20182;-83
2024/01/10 10:23:02;;;;;;;15.13;5.20;;;-0.70;97.80;;;;;;5020860;28;20254;-82
2024/01/10 10:25:35;;;;;;;4.43;3.00;;;-0.60;97.70;;;;;;5008180;28;20195;-82
2024/01/10 10:28:03;;;;;;;10.68;5.07;;;-0.60;98.10;;;;;;5011561;28;20256;-85
2024/01/10 10:30:31;;;;;;;8.77;5.32;;;-0.50;98.40;;;;;;5006583;28;20193;-80
2024/01/10 10:32:57;;;;;;;13.40;4.38;;;-0.50;98.30;;;;;;5007192;28;20904;-83
2024/01/10 10:35:23;;;;;;;6.77;3.13;;;-0.50;98.30;;;;;;5021060;28;20183;-83
2024/01/10 10:37:50;;;;;;;10.05;4.78;;;-0.50;97.60;;;;;;5009894;28;20732;-82
2024/01/10 10:40:16;;;;;;;4.65;2.25;;;-0.60;98.40;;;;;;5007749;28;20281;-83
2024/01/10 10:42:47;;;;;;;17.75;6.00;;;-0.60;98.20;;;;;;5006666;28;20802;-83
2024/01/10 10:45:17;;;;;;;6.93;3.60;;;-0.70;98.40;;;;;;5008606;28;20273;-83
2024/01/10 10:47:45;;;;;;;17.83;6.25;;;-0.70;98.80;;;;;;5003568;28;20754;-84
2024/01/10 10:50:18;;;;;;;14.82;6.28;;;-0.60;99.20;;;;;;4999458;28;20209;-84
2024/01/10 10:52:46;;;;;;;6.72;3.05;;;-0.50;98.60;;;;;;5020266;28;20193;-81
2024/01/10 10:55:16;;;;;;;4.70;2.97;;;-0.40;98.80;;;;;;5015088;28;20186;-86
2024/01/10 10:57:46;;;;;;;5.43;3.78;;;-0.30;99.00;;;;;;5012438;28;20201;-81
2024/01/10 11:00:20;;;;;;;6.55;4.72;;;-0.10;98.60;;;;;;5013161;28;20183;-82
2024/01/10 11:02:46;;;;;;;8.73;5.50;;;0.00;98.40;;;;;;5010195;28;21012;-84
2024/01/10 11:05:12;;;;;;;8.38;5.10;;;0.10;98.10;;;;;;5007698;28;20206;-82
2024/01/10 11:07:39;;;;;;;11.33;6.97;;;0.20;98.40;;;;;;5012819;28;20280;-82
2024/01/10 11:10:28;;;;;;;10.10;5.80;;;0.50;98.10;;;;;;5012749;28;21108;-85
2024/01/10 11:13:14;;;;;;;14.38;6.05;;;0.70;97.30;;;;;;5012433;28;20197;-81
2024/01/10 11:15:57;;;;;;;4.90;4.32;;;0.70;96.60;;;;;;5015947;28;20185;-85
2024/01/10 11:18:52;;;;;;;5.22;3.55;;;0.70;97.00;;;;;;5018769;28;20855;-79
2024/01/10 11:21:34;;;;;;;10.93;5.35;;;0.70;96.70;;;;;;5020256;28;20398;-80
2024/01/10 11:24:01;;;;;;;5.38;4.35;;;0.70;96.90;;;;;;5007589;28;21550;-82
2024/01/10 11:26:26;;;;;;;5.57;3.42;;;0.70;96.40;;;;;;5009447;28;20270;-86
2024/01/10 11:28:53;;;;;;;8.37;5.00;;;0.60;96.40;;;;;;5009582;28;20472;-80
2024/01/10 11:31:39;;;;;;;16.58;8.52;;;0.70;96.80;;;;;;5007545;28;20198;-82
2024/01/10 11:34:05;;;;;;;12.15;4.75;;;0.80;96.60;;;;;;5018220;28;20194;-84
2024/01/10 11:36:31;;;;;;;15.10;5.07;;;0.90;96.60;;;;;;5013893;28;20196;-84
2024/01/10 11:39:04;;;;;;;6.55;5.35;;;0.90;96.40;;;;;;5026275;28;20463;-84
2024/01/10 11:41:40;;;;;;;10.07;4.72;;;0.90;96.30;;;;;;5013074;28;20196;-80
2024/01/10 11:44:11;;;;;;;15.10;5.82;;;1.00;95.80;;;;;;5010099;28;20265;-83
2024/01/10 11:46:41;;;;;;;11.23;5.72;;;1.00;95.80;;;;;;5012508;28;20197;-84
2024/01/10 11:49:08;;;;;;;13.82;5.63;;;1.00;95.70;;;;;;5011556;28;20305;-84
2024/01/10 11:51:36;;;;;;;12.77;6.03;;;1.00;95.80;;;;;;5015617;28;20217;-84
2024/01/10 11:54:02;;;;;;;8.95;5.45;;;0.90;95.90;;;;;;5013135;28;20186;-82
2024/01/10 11:56:38;;;;;;;19.57;7.13;;;0.90;95.80;;;;;;5011047;28;20641;-81
2024/01/10 11:59:10;;;;;;;17.90;5.10;;;0.90;96.10;;;;;;5019060;28;20464;-80
2024/01/10 12:01:40;;;;;;;10.43;4.20;;;0.90;95.60;;;;;;5021564;28;20221;-82
2024/01/10 12:04:06;;;;;;;19.27;7.05;;;0.90;95.70;;;;;;5015572;28;20186;-80
2024/01/10 12:06:34;;;;;;;12.87;5.00;;;0.80;96.00;;;;;;5009874;28;20182;-82
2024/01/10 12:09:03;;;;;;;9.27;5.18;;;0.80;96.10;;;;;;5001768;28;20461;-82
2024/01/10 12:11:28;;;;;;;10.48;5.45;;;0.90;96.40;;;;;;5012149;28;20305;-82
2024/01/10 12:13:54;;;;;;;8.87;4.53;;;1.00;95.90;;;;;;5007705;28;20189;-83
2024/01/10 12:16:22;;;;;;;9.73;5.80;;;1.10;95.90;;;;;;5012752;28;20189;-86
2024/01/10 12:18:48;;;;;;;16.30;6.45;;;1.10;95.40;;;;;;5002905;28;20207;-85
2024/01/10 12:21:13;;;;;;;29.90;5.87;;;1.20;95.20;;;;;;4994275;28;20194;-81
2024/01/10 12:23:40;;;;;;;9.87;4.20;;;1.20;95.20;;;;;;4999146;28;20186;-85
2024/01/10 12:26:12;;;;;;;7.32;5.55;;;1.20;95.30;;;;;;5011672;28;20187;-82
2024/01/10 12:28:39;;;;;;;12.65;5.93;;;1.20;95.00;;;;;;5013605;28;20222;-86
2024/01/10 12:31:05;;;;;;;12.95;6.10;;;1.20;95.20;;;;;;5009320;28;20185;-82
2024/01/10 12:33:32;;;;;;;9.53;7.20;;;1.20;95.40;;;;;;4995752;28;21273;-85
2024/01/10 12:36:10;;;;;;;12.80;6.45;;;1.30;95.50;;;;;;4995609;28;21707;-85
2024/01/10 12:38:38;;;;;;;12.52;5.82;;;1.40;95.20;;;;;;5006289;28;20217;-85
2024/01/10 12:41:04;;;;;;;10.43;4.43;;;1.50;95.40;;;;;;5004065;28;20183;-84
2024/01/10 12:43:33;;;;;;;19.38;5.95;;;1.60;95.10;;;;;;5009655;28;20198;-84